DIRECCIÓN GENERAL DE AERONÁUTICA CIVIL
DIRECCIÓN METEOROLÓGICA DE CHILE
INFORMACIÓN METAR Y TAF

FIR PUERTO MONTT

Estación: SCQP
METAR SCQP 252000Z 29012KT 260V330 9999 BKN032 BKN200 12/07 Q1015=

TAF SCQP 251600Z 2518/2618 35012KT 9999 BKN040 TX13/2518Z TN04/2610Z TEMPO 2518/2521 7000 -SHRA BECMG 2600/2602 06004KT BKN020 BECMG 2615/2617 SCT040=

Estación: SCVD
METAR SCVD 252000Z 31012G22KT 280V340 9999 BKN029 BKN037 12/09 Q1013=

TAF SCVD 251022Z 2512/2524 35015G25KT 5000 -RA OVC020 OVC040 TX12/2512Z TN10/2524Z BECMG 2516/2418 7000 -SHRA BKN030 BECMG 2520/2522 34012KT=

Estación: SCJO
METAR SCJO 252000Z 33013KT 9999 BKN030 13/10 Q1011=

TAF SCJO 251023Z 2512/2524 35010G20KT 5000 -RA OVC020 OVC040 TX11/2512Z TN09/2524Z BECMG 2516/2518 7000 -SHRA BKN030 BECMG 2520/2522 33012KT=

Estación: SCTE
METAR SCTE 252000Z 30008KT 9999 -SHRA OVC030 10/06 Q1011 NOSIG=

TAF SCTE 251600Z 2518/2618 35012G25KT 8000 -RA BKN040 BKN080 TX12/2518Z TN06/2610Z BECMG 2522/2600 30010KT BECMG 2606/2608 BKN030=

Estación: SCPQ
METAR SCPQ 252000Z 30015G26KT 280V340 9999 BKN025 10/05 Q1008=

TAF SCPQ 251030Z 2512/2524 35018G30KT 4000 -RA BKN015 OVC030 TX09/2512Z TN07/2524Z BECMG 2519/2521 35015KT 8000 -SHRA BKN030=

Estación: SCON
METAR SCON 252000Z 27006KT 9999 BKN020 11/07 Q1007=

TAF SCON NIL=

Estación: SCTN
METAR SCTN 252000Z 34014KT 9999 OVC024 10/08 Q1009=

TAF SCTN 251029Z 2512/2524 36020G30KT 4000 RA BKN015 OVC030 TX11/2512Z TN09/2524Z BECMG 2519/2521 34015KT=

Estación: SCFT
METAR SCFT 252000Z 26008KT 230V290 9999 -SHRA BKN046 09/03 Q1008=

TAF SCFT NIL=

Estación: SCAP
METAR SCAP 252000Z 23015G29KT 180V280 9999 SCT030 12/03 Q1012=

TAF SCAP NIL=

Estación: SCMK
METAR SCMK 252000Z 34012KT 9999 BKN022 10/06 Q1004=

TAF SCMK 251026Z 2512/2524 36025G40KT 4000 RA BKN010 OVC030 TX12/2512Z TN09/2523Z BECMG 2521/2523 35020KT 6000 -SHRA BKN025=

Estación: SCAS
METAR SCAS 252000Z 00000KT 8000 -RA SCT010 BKN043 11/09 Q1003=

TAF SCAS NIL=

Estación: SCCY
METAR SCCY 252000Z 02006KT 9999 SCT036 12/06 Q1002=

TAF SCCY 251027Z 2512/2524 04005KT 4000 -RA BKN040 TN04/2512Z TX09/2518Z BECMG 2516/2518 6000 -SHRA BKN030 BECMG 2520/2522 30012KT=

Estación: SCBA
METAR SCBA 252000Z 27006KT 210V300 9999 -SHRA SCT020 OVC040 09/06 Q1003=

TAF SCBA 251600Z 2518/2618 30017KT 9999 -RA BKN030 BKN050 TX09/2518Z TN01/2610Z BECMG 2521/2523 30023G35KT TEMPO 2602/2608 31030G42KT SCT050 BECMG 2612/2614 30015KT NSW=

Estación: SCCC
METAR SCCC 252000Z 09003KT 9999 BKN040 12/04 Q1003=

TAF SCCC NIL=

Estación: SCHR
METAR SCHR 252000Z 21003KT 9999 FEW020 BKN035 10/05 Q1000=

TAF SCHR 251020Z 2512/2600 10005KT 9000 BKN040 TX09/2518Z TN04/2512Z TEMPO 2513/2516 VRB03KT 5000 -RADZ BR SCT007 OVC013=


Volver